Lambs Grove, Massachusetts
Current Conditions -  °F | °C
As of 4:54 AM on Monday 26 Jan 2015 (Local Time) from KORH Reporting Station
Clear Clear  
Wind Chill: -1°   Ceiling: Unl
Heat Index:   Visibility: 10mi
Dew Point: -1°   Wind: 6mph
Humidity: 64%   Direction: 30°NNE
Pressure: 30"   Gusts: NA
Location:  42.2477°N, 71.9927°W
Report Text: KORH 260954Z AUTO 03005KT 10SM CLR M13/M18 A3000 RMK AO2 SLP179 T11281183
Loading
Personal Weather Stations






























Interactive Weather Map New forecast layout! Learn more

10-Day Weather Forecast

Advertisements
Track Severe Weather on mobile